Karla A — TCCR8 — position and weather

sailwx.info

Track history (hours):
 
Tides and Currents Weather Stations Pressure Air Temp Water Temp Dewpoint Dewpoint Depression Visibility Wind Speed Wind Dir Waves Ship Positions

Karla A

Last reported at 2016-Apr-27 22:31 UTC. Time now 2016-Apr-29 08:19 UTC.
Position N 40°60' E 028°60'.

Length 155 m; draft 9.3 m.

Type: Ship (hazmat cat A). MMSI: 271000744.

Date/timePositionNaut miles runAvg speedWind from/ knotsBaromVisibWave heightAir tempDewpointWater temp
2016-Apr-27 22:31N 40°60' E 028°60'1212.5
2016-Apr-27 21:33N 40°48' E 028°54'1 0.8
2016-Apr-27 20:33N 40°48' E 028°54'0 0.1
2016-Apr-27 19:30N 40°48' E 028°54'0 0.2
2016-Apr-27 18:33N 40°48' E 028°55'0 0.3
2016-Apr-27 17:33N 40°48' E 028°55'0 0.2
2016-Apr-27 16:33N 40°47' E 028°55'9 9.4
2016-Apr-27 15:33N 40°53' E 028°45'6 0.1
2016-Apr-25 17:19N 40°56' E 028°39'0 0.0
2016-Apr-25 16:33N 40°56' E 028°39'3 2.9
2016-Apr-25 15:30N 40°53' E 028°38'3311.0
2016-Apr-25 12:29N 40°25' E 029°01'3 0.4
2016-Apr-25 05:33N 40°25' E 029°05'2 1.8
2016-Apr-25 04:32N 40°26' E 029°03'0 0.4
2016-Apr-25 03:30N 40°26' E 029°02'26011.3
2016-Apr-24 04:34N 37°50' E 024°34'1513.8
2016-Apr-24 03:28N 37°36' E 024°28'1313.8
2016-Apr-24 02:32N 37°26' E 024°17'1413.9
2016-Apr-24 01:33N 37°16' E 024°06'1413.9
2016-Apr-24 00:33N 37°05' E 023°54'1414.0
2016-Apr-23 23:33N 36°55' E 023°42'40413.4
2016-Apr-22 17:30N 36°29' E 015°20'1313.9
2016-Apr-22 16:33N 36°30' E 015°03'1414.1
2016-Apr-22 15:33N 36°34' E 014°47'1414.2
2016-Apr-22 14:33N 36°40' E 014°31'1414.1
2016-Apr-22 13:34N 36°45' E 014°15'1413.6
2016-Apr-22 12:33N 36°51' E 013°59'1413.8
2016-Apr-22 11:33N 36°57' E 013°43'1413.8
2016-Apr-22 10:32N 37°02' E 013°27'5614.0
2016-Apr-22 06:33N 37°27' E 012°24'1413.9
2016-Apr-22 05:33N 37°35' E 012°10'1413.7
2016-Apr-22 04:33N 37°42' E 011°55'1913.2
2016-Apr-22 03:08N 37°52' E 011°35'11014.0
2016-Apr-21 19:17N 38°51' E 009°37'1014.0
2016-Apr-21 18:33N 38°57' E 009°26'1413.9
2016-Apr-21 17:33N 39°05' E 009°11'10 9.6
2016-Apr-21 16:32N 39°13' E 009°04'0 0.0
2016-Apr-21 15:31N 39°13' E 009°04'0 0.0
2016-Apr-21 14:30N 39°13' E 009°04'0 0.0
2016-Apr-21 13:33N 39°13' E 009°04'0 0.0
2016-Apr-21 12:33N 39°13' E 009°04'0 0.0
2016-Apr-21 11:32N 39°13' E 009°04'0 0.0
2016-Apr-21 10:32N 39°13' E 009°04'0 0.0
2016-Apr-21 09:31N 39°13' E 009°04'0 0.0
2016-Apr-21 08:31N 39°13' E 009°04'0 0.0
2016-Apr-21 07:33N 39°13' E 009°04'0 0.0
2016-Apr-21 06:33N 39°13' E 009°04'0 0.0
2016-Apr-21 05:32N 39°13' E 009°04'0 0.1
2016-Apr-21 04:33N 39°13' E 009°04'2 2.4
2016-Apr-21 03:33N 39°11' E 009°06'0 0.0
2016-Apr-21 02:33N 39°11' E 009°06'0 0.0
2016-Apr-21 01:32N 39°11' E 009°06'0 0.0
2016-Apr-21 00:32N 39°11' E 009°06'0 0.0
2016-Apr-20 23:31N 39°11' E 009°06'0 0.0
2016-Apr-20 22:31N 39°11' E 009°06'0 0.0
2016-Apr-20 21:34N 39°11' E 009°06'0 0.0
2016-Apr-20 20:33N 39°11' E 009°06'0 0.0
2016-Apr-20 19:33N 39°11' E 009°06'0 0.0
2016-Apr-20 18:32N 39°11' E 009°06'0 0.0
2016-Apr-20 17:32N 39°11' E 009°06'0 0.0
2016-Apr-20 16:31N 39°11' E 009°06'0 0.0
2016-Apr-20 15:31N 39°11' E 009°06'0 0.0
2016-Apr-20 14:33N 39°11' E 009°06'0 0.0
2016-Apr-20 13:33N 39°11' E 009°06'0 0.0
2016-Apr-20 12:33N 39°11' E 009°06'0 0.0
2016-Apr-20 11:32N 39°11' E 009°06'0 0.0
2016-Apr-20 10:32N 39°11' E 009°06'0 0.0
2016-Apr-20 09:31N 39°11' E 009°06'0 0.0
2016-Apr-20 08:31N 39°11' E 009°06'0 0.0
2016-Apr-20 07:33N 39°11' E 009°06'0 0.0
2016-Apr-20 06:33N 39°11' E 009°06'0 0.0
2016-Apr-20 05:33N 39°11' E 009°06'0 0.0
2016-Apr-20 04:32N 39°11' E 009°06'0 0.0
2016-Apr-20 03:32N 39°11' E 009°06'0 0.0
2016-Apr-20 02:28N 39°11' E 009°06'0 0.0
2016-Apr-20 01:31N 39°11' E 009°06'0 0.0
2016-Apr-20 00:33N 39°11' E 009°06'0 0.0
2016-Apr-19 23:33N 39°11' E 009°06'0 0.0
2016-Apr-19 22:33N 39°11' E 009°06'0 0.1
2016-Apr-19 21:32N 39°11' E 009°06'1 0.7
2016-Apr-19 20:33N 39°10' E 009°06'9 8.9
2016-Apr-19 19:33N 39°01' E 009°07'10 9.8
2016-Apr-19 18:33N 38°53' E 008°59'10 9.8
2016-Apr-19 17:32N 38°49' E 008°48'233 9.6
2016-Apr-18 17:09N 38°60' E 003°48'610.0
2016-Apr-18 16:32N 39°00' E 003°40'1110.4
2016-Apr-18 15:30N 39°01' E 003°27'1010.2
2016-Apr-18 14:30N 39°02' E 003°13'1111.5
2016-Apr-18 13:33N 39°03' E 002°59'9 9.5
2016-Apr-18 12:33N 39°05' E 002°48'10 9.7
2016-Apr-18 11:34N 39°09' E 002°36'10 9.8
2016-Apr-18 10:33N 39°12' E 002°24'10 9.7
2016-Apr-18 09:33N 39°16' E 002°13'9 9.5
2016-Apr-18 08:33N 39°19' E 002°01'10 9.6
2016-Apr-18 07:33N 39°23' E 001°50'1010.1
2016-Apr-18 06:33N 39°27' E 001°38'1010.2
2016-Apr-18 05:34N 39°30' E 001°25'  
Track history (hours):
 
Tides and Currents Weather Stations Pressure Air Temp Water Temp Dewpoint Dewpoint Depression Visibility Wind Speed Wind Dir Waves Ship Positions

Karla A

Last reported at 2016-Apr-27 22:31 UTC. Time now 2016-Apr-29 08:19 UTC.
Position N 40°60' E 028°60'.

Length 155 m; draft 9.3 m.

Type: Ship (hazmat cat A). MMSI: 271000744.

Date/timePositionNaut miles runAvg speedWind from/ knotsBaromVisibWave heightAir tempDewpointWater temp
2016-Apr-27 22:31N 40°60' E 028°60'1212.5
2016-Apr-27 21:33N 40°48' E 028°54'1 0.8
2016-Apr-27 20:33N 40°48' E 028°54'0 0.1
2016-Apr-27 19:30N 40°48' E 028°54'0 0.2
2016-Apr-27 18:33N 40°48' E 028°55'0 0.3
2016-Apr-27 17:33N 40°48' E 028°55'0 0.2
2016-Apr-27 16:33N 40°47' E 028°55'9 9.4
2016-Apr-27 15:33N 40°53' E 028°45'6 0.1
2016-Apr-25 17:19N 40°56' E 028°39'0 0.0
2016-Apr-25 16:33N 40°56' E 028°39'3 2.9
2016-Apr-25 15:30N 40°53' E 028°38'3311.0
2016-Apr-25 12:29N 40°25' E 029°01'3 0.4
2016-Apr-25 05:33N 40°25' E 029°05'2 1.8
2016-Apr-25 04:32N 40°26' E 029°03'0 0.4
2016-Apr-25 03:30N 40°26' E 029°02'26011.3
2016-Apr-24 04:34N 37°50' E 024°34'1513.8
2016-Apr-24 03:28N 37°36' E 024°28'1313.8
2016-Apr-24 02:32N 37°26' E 024°17'1413.9
2016-Apr-24 01:33N 37°16' E 024°06'1413.9
2016-Apr-24 00:33N 37°05' E 023°54'1414.0
2016-Apr-23 23:33N 36°55' E 023°42'40413.4
2016-Apr-22 17:30N 36°29' E 015°20'1313.9
2016-Apr-22 16:33N 36°30' E 015°03'1414.1
2016-Apr-22 15:33N 36°34' E 014°47'1414.2
2016-Apr-22 14:33N 36°40' E 014°31'1414.1
2016-Apr-22 13:34N 36°45' E 014°15'1413.6
2016-Apr-22 12:33N 36°51' E 013°59'1413.8
2016-Apr-22 11:33N 36°57' E 013°43'1413.8
2016-Apr-22 10:32N 37°02' E 013°27'5614.0
2016-Apr-22 06:33N 37°27' E 012°24'1413.9
2016-Apr-22 05:33N 37°35' E 012°10'1413.7
2016-Apr-22 04:33N 37°42' E 011°55'1913.2
2016-Apr-22 03:08N 37°52' E 011°35'11014.0
2016-Apr-21 19:17N 38°51' E 009°37'1014.0
2016-Apr-21 18:33N 38°57' E 009°26'1413.9
2016-Apr-21 17:33N 39°05' E 009°11'10 9.6
2016-Apr-21 16:32N 39°13' E 009°04'0 0.0
2016-Apr-21 15:31N 39°13' E 009°04'0 0.0
2016-Apr-21 14:30N 39°13' E 009°04'0 0.0
2016-Apr-21 13:33N 39°13' E 009°04'0 0.0
2016-Apr-21 12:33N 39°13' E 009°04'0 0.0
2016-Apr-21 11:32N 39°13' E 009°04'0 0.0
2016-Apr-21 10:32N 39°13' E 009°04'0 0.0
2016-Apr-21 09:31N 39°13' E 009°04'0 0.0
2016-Apr-21 08:31N 39°13' E 009°04'0 0.0
2016-Apr-21 07:33N 39°13' E 009°04'0 0.0
2016-Apr-21 06:33N 39°13' E 009°04'0 0.0
2016-Apr-21 05:32N 39°13' E 009°04'0 0.1
2016-Apr-21 04:33N 39°13' E 009°04'2 2.4
2016-Apr-21 03:33N 39°11' E 009°06'0 0.0
2016-Apr-21 02:33N 39°11' E 009°06'0 0.0
2016-Apr-21 01:32N 39°11' E 009°06'0 0.0
2016-Apr-21 00:32N 39°11' E 009°06'0 0.0
2016-Apr-20 23:31N 39°11' E 009°06'0 0.0
2016-Apr-20 22:31N 39°11' E 009°06'0 0.0
2016-Apr-20 21:34N 39°11' E 009°06'0 0.0
2016-Apr-20 20:33N 39°11' E 009°06'0 0.0
2016-Apr-20 19:33N 39°11' E 009°06'0 0.0
2016-Apr-20 18:32N 39°11' E 009°06'0 0.0
2016-Apr-20 17:32N 39°11' E 009°06'0 0.0
2016-Apr-20 16:31N 39°11' E 009°06'0 0.0
2016-Apr-20 15:31N 39°11' E 009°06'0 0.0
2016-Apr-20 14:33N 39°11' E 009°06'0 0.0
2016-Apr-20 13:33N 39°11' E 009°06'0 0.0
2016-Apr-20 12:33N 39°11' E 009°06'0 0.0
2016-Apr-20 11:32N 39°11' E 009°06'0 0.0
2016-Apr-20 10:32N 39°11' E 009°06'0 0.0
2016-Apr-20 09:31N 39°11' E 009°06'0 0.0
2016-Apr-20 08:31N 39°11' E 009°06'0 0.0
2016-Apr-20 07:33N 39°11' E 009°06'0 0.0
2016-Apr-20 06:33N 39°11' E 009°06'0 0.0
2016-Apr-20 05:33N 39°11' E 009°06'0 0.0
2016-Apr-20 04:32N 39°11' E 009°06'0 0.0
2016-Apr-20 03:32N 39°11' E 009°06'0 0.0
2016-Apr-20 02:28N 39°11' E 009°06'0 0.0
2016-Apr-20 01:31N 39°11' E 009°06'0 0.0
2016-Apr-20 00:33N 39°11' E 009°06'0 0.0
2016-Apr-19 23:33N 39°11' E 009°06'0 0.0
2016-Apr-19 22:33N 39°11' E 009°06'0 0.1
2016-Apr-19 21:32N 39°11' E 009°06'1 0.7
2016-Apr-19 20:33N 39°10' E 009°06'9 8.9
2016-Apr-19 19:33N 39°01' E 009°07'10 9.8
2016-Apr-19 18:33N 38°53' E 008°59'10 9.8
2016-Apr-19 17:32N 38°49' E 008°48'233 9.6
2016-Apr-18 17:09N 38°60' E 003°48'610.0
2016-Apr-18 16:32N 39°00' E 003°40'1110.4
2016-Apr-18 15:30N 39°01' E 003°27'1010.2
2016-Apr-18 14:30N 39°02' E 003°13'1111.5
2016-Apr-18 13:33N 39°03' E 002°59'9 9.5
2016-Apr-18 12:33N 39°05' E 002°48'10 9.7
2016-Apr-18 11:34N 39°09' E 002°36'10 9.8
2016-Apr-18 10:33N 39°12' E 002°24'10 9.7
2016-Apr-18 09:33N 39°16' E 002°13'9 9.5
2016-Apr-18 08:33N 39°19' E 002°01'10 9.6
2016-Apr-18 07:33N 39°23' E 001°50'1010.1
2016-Apr-18 06:33N 39°27' E 001°38'1010.2
2016-Apr-18 05:34N 39°30' E 001°25'  

Dump ship's entire track history